Time;durP1;ratioP1;P1;durP2;ratioP2;P2;SDS_P1;SDS_P2;PMS_P1;PMS_P2;Temp;Humidity;BMP_temperature;BMP_pressure;BME280_temperature;BME280_humidity;BME280_pressure;Samples;Min_cycle;Max_cycle;Signal;HPM_P1;HPM_P2
2023/12/29 00:01:32;;;;;;;13.38;2.80;;;9.80;98.30;;;;;;5100036;28;20460;-77
2023/12/29 00:03:58;;;;;;;14.17;2.67;;;9.80;98.10;;;;;;5101354;28;20396;-77
2023/12/29 00:06:24;;;;;;;14.07;2.83;;;9.80;97.80;;;;;;5099083;28;20486;-77
2023/12/29 00:08:49;;;;;;;14.05;2.83;;;9.80;97.30;;;;;;5101839;28;20454;-77
2023/12/29 00:11:19;;;;;;;14.03;2.50;;;9.80;97.20;;;;;;5093047;28;20908;-77
2023/12/29 00:13:45;;;;;;;13.10;2.60;;;9.80;96.80;;;;;;5096778;28;20795;-77
2023/12/29 00:16:11;;;;;;;15.00;2.63;;;9.80;96.30;;;;;;5101702;28;20409;-77
2023/12/29 00:18:39;;;;;;;15.27;2.40;;;9.90;96.10;;;;;;5106539;28;20762;-76
2023/12/29 00:21:05;;;;;;;13.30;2.63;;;9.90;95.70;;;;;;5101244;28;20410;-77
2023/12/29 00:23:31;;;;;;;12.23;2.00;;;10.00;95.30;;;;;;5105179;28;20432;-77
2023/12/29 00:25:57;;;;;;;11.63;2.22;;;10.00;94.80;;;;;;5100141;28;20402;-77
2023/12/29 00:28:22;;;;;;;12.47;2.97;;;10.00;94.40;;;;;;5105212;28;20906;-77
2023/12/29 00:30:48;;;;;;;14.27;2.25;;;10.00;94.30;;;;;;5099981;28;21228;-77
2023/12/29 00:33:13;;;;;;;10.48;2.25;;;10.00;94.00;;;;;;5102817;28;20404;-77
2023/12/29 00:35:39;;;;;;;12.27;2.13;;;10.00;94.00;;;;;;5098712;28;20405;-77
2023/12/29 00:38:06;;;;;;;12.77;2.42;;;9.90;93.90;;;;;;5100430;28;20416;-77
2023/12/29 00:40:34;;;;;;;12.77;2.58;;;10.00;93.80;;;;;;5096969;28;20434;-77
2023/12/29 00:43:01;;;;;;;11.35;2.25;;;10.00;93.70;;;;;;5092994;28;20933;-77
2023/12/29 00:45:31;;;;;;;13.38;2.58;;;9.90;93.50;;;;;;5096349;28;20410;-77
2023/12/29 00:47:57;;;;;;;15.05;2.75;;;10.00;93.90;;;;;;5101338;28;20411;-77
2023/12/29 00:50:23;;;;;;;16.95;2.90;;;10.00;93.50;;;;;;5096181;28;20437;-77
2023/12/29 00:52:48;;;;;;;12.47;2.30;;;10.00;93.50;;;;;;5095098;28;20434;-77
2023/12/29 00:55:14;;;;;;;14.38;2.92;;;10.00;93.60;;;;;;5094335;28;20406;-77
2023/12/29 00:57:40;;;;;;;9.87;2.50;;;10.00;93.80;;;;;;5093044;28;20410;-77
2023/12/29 01:00:08;;;;;;;13.32;2.65;;;10.00;94.00;;;;;;5095300;28;20517;-77
2023/12/29 01:02:33;;;;;;;17.13;2.95;;;9.90;94.10;;;;;;5099861;28;20447;-77
2023/12/29 01:04:59;;;;;;;14.17;2.57;;;9.90;94.60;;;;;;5094609;28;20421;-77
2023/12/29 01:07:24;;;;;;;12.93;2.80;;;9.90;95.20;;;;;;5099769;28;20412;-77
2023/12/29 01:09:50;;;;;;;14.05;2.65;;;9.70;95.50;;;;;;5093294;28;20495;-77
2023/12/29 01:12:16;;;;;;;15.20;3.00;;;9.60;96.00;;;;;;5095665;28;20906;-77
2023/12/29 01:14:42;;;;;;;18.10;3.57;;;9.60;97.80;;;;;;5101273;28;20417;-77
2023/12/29 01:17:07;;;;;;;16.45;2.33;;;9.50;98.00;;;;;;5104214;28;20408;-77
2023/12/29 01:19:33;;;;;;;16.23;2.63;;;9.50;97.80;;;;;;5100805;28;20409;-77
2023/12/29 01:21:58;;;;;;;15.32;2.35;;;9.50;98.10;;;;;;5105009;28;20837;-77
2023/12/29 01:24:24;;;;;;;12.80;2.33;;;9.50;98.50;;;;;;5099719;28;20776;-77
2023/12/29 01:26:50;;;;;;;13.40;2.43;;;9.50;98.70;;;;;;5104453;28;20941;-77
2023/12/29 01:29:15;;;;;;;15.73;2.40;;;9.60;98.70;;;;;;5100658;28;20489;-77
2023/12/29 01:31:41;;;;;;;15.10;2.67;;;9.50;98.60;;;;;;5104994;28;20481;-77
2023/12/29 01:34:06;;;;;;;13.25;2.00;;;9.50;98.60;;;;;;5100488;28;20412;-78
2023/12/29 01:36:32;;;;;;;13.87;2.37;;;9.50;98.70;;;;;;5103902;28;20412;-77
2023/12/29 01:38:57;;;;;;;12.13;2.30;;;9.50;98.30;;;;;;5100089;28;20489;-77
2023/12/29 01:41:23;;;;;;;13.03;2.43;;;9.50;98.40;;;;;;5093547;28;20400;-77
2023/12/29 01:44:01;;;;;;;13.25;2.75;;;9.50;98.20;;;;;;5098908;28;20402;-77
2023/12/29 01:46:30;;;;;;;13.77;2.63;;;9.50;98.00;;;;;;5079611;28;20410;-77
2023/12/29 01:48:58;;;;;;;14.40;2.50;;;9.50;97.90;;;;;;5097645;28;20463;-77
2023/12/29 01:51:25;;;;;;;17.13;2.55;;;9.50;98.00;;;;;;5104001;28;20409;-77
2023/12/29 01:53:56;;;;;;;14.75;2.83;;;9.60;98.10;;;;;;5099343;28;20429;-77
2023/12/29 01:56:22;;;;;;;13.75;2.38;;;9.60;97.80;;;;;;5101589;28;20820;-76
2023/12/29 01:58:49;;;;;;;15.32;2.70;;;9.60;97.90;;;;;;5088990;28;20444;-77
2023/12/29 02:01:17;;;;;;;17.40;3.07;;;9.60;97.70;;;;;;5101045;28;20413;-77
2023/12/29 02:03:44;;;;;;;15.23;2.75;;;9.60;97.70;;;;;;5095758;28;20945;-77
2023/12/29 02:06:10;;;;;;;16.45;3.17;;;9.70;97.60;;;;;;5100117;28;21132;-77
2023/12/29 02:08:37;;;;;;;18.02;3.05;;;9.70;97.70;;;;;;5098246;28;20407;-77
2023/12/29 02:11:04;;;;;;;15.10;2.50;;;9.70;97.50;;;;;;5092401;28;20461;-77
2023/12/29 02:13:29;;;;;;;14.88;2.70;;;9.70;97.40;;;;;;5102471;28;20396;-77
2023/12/29 02:16:00;;;;;;;13.23;2.83;;;9.70;97.20;;;;;;5101704;28;20407;-77
2023/12/29 02:18:29;;;;;;;12.85;2.20;;;9.60;96.70;;;;;;5092928;28;20428;-77
2023/12/29 02:20:54;;;;;;;9.57;1.67;;;9.60;96.20;;;;;;5100921;28;20480;-77
2023/12/29 02:23:20;;;;;;;9.20;1.55;;;9.50;95.80;;;;;;5100991;28;20436;-77
2023/12/29 02:25:46;;;;;;;8.30;1.10;;;9.50;95.00;;;;;;5102045;28;20495;-77
2023/12/29 02:28:24;;;;;;;8.30;1.23;;;9.50;94.00;;;;;;5101169;28;20480;-77
2023/12/29 02:31:17;;;;;;;6.30;1.02;;;9.50;92.70;;;;;;5099947;28;20406;-77
2023/12/29 02:33:44;;;;;;;4.45;0.70;;;9.50;91.50;;;;;;5096805;28;20415;-77
2023/12/29 02:36:12;;;;;;;4.40;0.70;;;9.40;88.60;;;;;;5098821;28;21041;-77
2023/12/29 02:38:38;;;;;;;5.22;0.90;;;9.40;88.80;;;;;;5102065;28;20407;-77
2023/12/29 02:41:05;;;;;;;3.20;0.60;;;9.40;87.60;;;;;;5091284;28;20423;-77
2023/12/29 02:43:33;;;;;;;4.68;0.47;;;9.30;85.80;;;;;;5101142;28;20489;-77
2023/12/29 02:45:59;;;;;;;3.70;0.63;;;9.30;84.30;;;;;;5096732;28;20422;-77
2023/12/29 02:48:25;;;;;;;4.57;0.50;;;9.20;80.10;;;;;;5096118;28;20404;-77
2023/12/29 02:50:50;;;;;;;4.87;0.77;;;9.10;78.40;;;;;;5096928;28;20943;-77
2023/12/29 02:53:16;;;;;;;4.55;0.80;;;9.00;79.90;;;;;;5096111;28;20404;-77
2023/12/29 02:55:42;;;;;;;6.40;0.80;;;8.90;81.90;;;;;;5090343;28;20412;-77
2023/12/29 02:58:09;;;;;;;6.83;0.93;;;8.80;82.20;;;;;;5099585;28;20461;-77
2023/12/29 03:00:34;;;;;;;8.10;1.08;;;8.80;83.80;;;;;;5098026;28;20763;-77
2023/12/29 03:03:00;;;;;;;4.50;1.30;;;8.80;85.70;;;;;;5099178;28;20431;-77
2023/12/29 03:05:26;;;;;;;9.07;1.77;;;8.70;87.00;;;;;;5098020;28;20477;-77
2023/12/29 03:07:51;;;;;;;9.20;1.75;;;8.70;88.50;;;;;;5091596;28;20455;-77
2023/12/29 03:10:17;;;;;;;12.95;1.83;;;8.70;89.50;;;;;;5093639;28;20409;-77
2023/12/29 03:12:43;;;;;;;9.37;1.87;;;8.60;90.20;;;;;;5095417;28;20887;-77
2023/12/29 03:15:09;;;;;;;12.27;2.03;;;8.70;90.60;;;;;;5100129;28;20400;-77
2023/12/29 03:17:34;;;;;;;16.05;2.88;;;8.70;90.80;;;;;;5101799;28;20408;-77
2023/12/29 03:20:02;;;;;;;17.15;3.15;;;8.80;90.40;;;;;;5099417;28;20408;-77
2023/12/29 03:22:28;;;;;;;17.92;2.92;;;8.80;90.00;;;;;;5103174;28;20432;-77
2023/12/29 03:24:53;;;;;;;14.40;2.65;;;8.90;88.50;;;;;;5098310;28;20444;-77
2023/12/29 03:27:19;;;;;;;19.23;3.22;;;9.00;87.90;;;;;;5098775;28;20864;-77
2023/12/29 03:29:45;;;;;;;17.13;3.70;;;8.90;88.20;;;;;;5103238;28;20940;-77
2023/12/29 03:32:10;;;;;;;19.33;3.90;;;9.00;89.80;;;;;;5103704;28;20420;-77
2023/12/29 03:34:36;;;;;;;17.17;2.73;;;9.00;90.10;;;;;;5102943;28;20461;-77
2023/12/29 03:37:01;;;;;;;21.17;4.43;;;9.10;90.50;;;;;;5105417;28;20424;-77
2023/12/29 03:39:27;;;;;;;17.65;3.67;;;9.10;91.00;;;;;;5098222;28;20406;-77
2023/12/29 03:41:53;;;;;;;20.87;3.50;;;9.10;91.40;;;;;;5098590;28;20416;-77
2023/12/29 03:44:18;;;;;;;23.65;4.40;;;9.10;91.60;;;;;;5102868;28;20954;-77
2023/12/29 03:46:44;;;;;;;23.70;4.07;;;9.20;92.10;;;;;;5104480;28;20404;-77
2023/12/29 03:49:10;;;;;;;21.85;4.28;;;9.20;92.60;;;;;;5096057;28;20425;-77
2023/12/29 03:51:35;;;;;;;24.48;3.55;;;9.20;93.10;;;;;;5089057;28;20429;-77
2023/12/29 03:54:01;;;;;;;26.67;4.40;;;9.30;93.20;;;;;;5087940;28;20410;-77
2023/12/29 03:56:27;;;;;;;21.90;4.07;;;9.40;93.60;;;;;;5102190;28;20415;-77
2023/12/29 03:58:53;;;;;;;22.92;3.85;;;9.40;93.30;;;;;;5096428;28;20485;-77
2023/12/29 04:01:19;;;;;;;27.23;5.33;;;9.50;92.70;;;;;;5108803;28;20416;-78
2023/12/29 04:03:45;;;;;;;27.70;4.53;;;9.50;92.00;;;;;;5107958;28;20428;-77
2023/12/29 04:06:11;;;;;;;23.73;4.60;;;9.60;91.30;;;;;;5103750;28;20409;-77
2023/12/29 04:08:37;;;;;;;20.77;4.15;;;9.50;90.20;;;;;;5098417;28;20404;-77
2023/12/29 04:11:04;;;;;;;20.05;3.85;;;9.50;88.80;;;;;;5107737;28;20764;-77
2023/12/29 04:13:30;;;;;;;25.15;4.30;;;9.50;86.50;;;;;;5108614;27;20808;-77
2023/12/29 04:15:56;;;;;;;20.98;3.92;;;9.50;83.50;;;;;;5094713;28;20398;-77
2023/12/29 04:18:23;;;;;;;20.45;3.67;;;9.50;82.80;;;;;;5108511;28;20757;-77
2023/12/29 04:20:49;;;;;;;19.73;3.72;;;9.40;79.90;;;;;;5105520;28;20460;-77
2023/12/29 04:23:15;;;;;;;23.83;4.37;;;9.40;79.70;;;;;;5103170;28;20458;-77
2023/12/29 04:25:40;;;;;;;23.42;4.50;;;9.40;78.60;;;;;;5097553;28;20408;-77
2023/12/29 04:28:09;;;;;;;24.83;4.22;;;9.30;73.90;;;;;;5105350;28;20441;-78
2023/12/29 04:30:35;;;;;;;20.27;3.90;;;9.40;70.70;;;;;;5107433;28;20487;-78
2023/12/29 04:33:01;;;;;;;20.77;3.73;;;9.40;68.00;;;;;;5104822;28;20977;-77
2023/12/29 04:35:27;;;;;;;23.50;4.00;;;9.50;70.00;;;;;;5108072;28;20413;-78
2023/12/29 04:37:52;;;;;;;17.63;3.63;;;9.50;69.90;;;;;;5092969;28;21677;-77
2023/12/29 04:40:18;;;;;;;22.92;4.28;;;9.60;69.20;;;;;;5089555;28;20428;-77
2023/12/29 04:42:44;;;;;;;24.60;4.23;;;9.60;65.30;;;;;;5103357;28;20445;-78
2023/12/29 04:45:10;;;;;;;20.07;3.93;;;9.70;63.70;;;;;;5097244;28;20409;-77
2023/12/29 04:47:36;;;;;;;20.77;3.90;;;9.70;62.40;;;;;;5105809;28;20413;-77
2023/12/29 04:50:02;;;;;;;20.38;3.97;;;9.70;61.30;;;;;;5107932;28;20404;-78
2023/12/29 04:52:27;;;;;;;22.10;3.85;;;9.70;62.40;;;;;;5105653;28;20432;-77
2023/12/29 04:54:53;;;;;;;25.00;4.77;;;9.60;63.80;;;;;;5106500;28;20458;-78
2023/12/29 04:57:18;;;;;;;29.65;4.85;;;9.60;65.20;;;;;;5103715;28;20400;-77
2023/12/29 04:59:44;;;;;;;25.87;5.00;;;9.60;64.10;;;;;;5097608;28;20823;-77
2023/12/29 05:02:10;;;;;;;22.77;4.67;;;9.50;65.70;;;;;;5106484;28;20430;-78
2023/12/29 05:04:35;;;;;;;21.85;4.07;;;9.50;67.00;;;;;;5106752;28;20801;-77
2023/12/29 05:07:01;;;;;;;16.33;3.00;;;9.50;65.10;;;;;;5106866;28;20406;-77
2023/12/29 05:09:26;;;;;;;27.20;4.35;;;9.50;60.60;;;;;;5107563;28;20974;-77
2023/12/29 05:11:52;;;;;;;18.07;4.00;;;9.50;53.20;;;;;;5105224;28;20398;-77
2023/12/29 05:14:18;;;;;;;18.02;4.03;;;9.60;47.60;;;;;;5107130;28;20841;-77
2023/12/29 05:16:44;;;;;;;18.87;3.90;;;9.60;44.50;;;;;;5105370;28;20406;-77
2023/12/29 05:19:09;;;;;;;17.60;3.67;;;9.60;42.60;;;;;;5107370;28;20495;-78
2023/12/29 05:21:35;;;;;;;18.65;4.10;;;9.60;38.10;;;;;;5104806;28;20527;-77
2023/12/29 05:24:01;;;;;;;20.85;4.07;;;9.70;37.00;;;;;;5105818;28;20778;-77
2023/12/29 05:26:26;;;;;;;22.10;3.87;;;9.70;36.00;;;;;;5104360;28;20895;-77
2023/12/29 05:28:52;;;;;;;18.50;3.15;;;9.70;35.10;;;;;;5106553;28;20567;-77
2023/12/29 05:31:18;;;;;;;19.27;3.73;;;9.60;36.90;;;;;;5103447;28;20903;-77
2023/12/29 05:33:44;;;;;;;19.17;3.17;;;9.60;37.10;;;;;;5106171;28;20408;-77
2023/12/29 05:36:10;;;;;;;21.57;4.07;;;9.50;40.90;;;;;;5103012;28;21288;-77
2023/12/29 05:38:37;;;;;;;23.67;4.30;;;9.50;42.30;;;;;;5106926;28;20404;-77
2023/12/29 05:41:04;;;;;;;21.83;3.88;;;9.50;45.10;;;;;;5103972;28;20410;-77
2023/12/29 05:43:31;;;;;;;19.37;3.80;;;9.60;45.90;;;;;;5105053;28;20424;-77
2023/12/29 05:45:57;;;;;;;23.45;3.95;;;9.50;48.00;;;;;;5103459;28;20405;-77
2023/12/29 05:48:23;;;;;;;22.37;4.13;;;9.50;50.50;;;;;;5105970;27;20400;-77
2023/12/29 05:50:52;;;;;;;20.33;4.00;;;9.50;52.00;;;;;;5084742;28;20418;-77
2023/12/29 05:53:18;;;;;;;24.90;4.23;;;9.50;54.60;;;;;;5104457;28;20743;-77
2023/12/29 05:55:45;;;;;;;24.58;4.32;;;9.50;56.00;;;;;;5099064;28;20505;-77
2023/12/29 05:58:11;;;;;;;22.48;4.00;;;9.50;57.10;;;;;;5088168;28;20576;-77
2023/12/29 06:00:37;;;;;;;19.98;4.40;;;9.50;57.80;;;;;;5100100;28;20485;-77
2023/12/29 06:03:05;;;;;;;23.38;4.43;;;9.50;57.60;;;;;;5095333;28;20427;-77
2023/12/29 06:05:32;;;;;;;24.55;5.13;;;9.50;57.20;;;;;;5105230;28;20914;-76
2023/12/29 06:07:58;;;;;;;22.70;3.70;;;9.60;57.70;;;;;;5106495;28;20411;-77
2023/12/29 06:10:24;;;;;;;25.60;4.55;;;9.50;56.10;;;;;;5103030;28;20405;-76
2023/12/29 06:12:49;;;;;;;26.60;4.68;;;9.60;55.00;;;;;;5104778;28;20767;-77
2023/12/29 06:15:15;;;;;;;23.73;3.93;;;9.60;55.60;;;;;;5103662;28;20421;-77
2023/12/29 06:17:41;;;;;;;25.83;4.32;;;9.50;54.50;;;;;;5088549;28;20403;-77
2023/12/29 06:20:09;;;;;;;20.55;4.30;;;9.60;55.80;;;;;;5105067;28;20489;-77
2023/12/29 06:22:41;;;;;;;27.55;4.55;;;9.50;55.90;;;;;;5107086;28;20427;-77
2023/12/29 06:25:11;;;;;;;22.60;4.15;;;9.50;56.80;;;;;;5105211;28;20461;-77
2023/12/29 06:27:38;;;;;;;22.45;4.40;;;9.50;56.40;;;;;;5105698;28;20404;-77
2023/12/29 06:30:05;;;;;;;22.33;3.70;;;9.50;56.60;;;;;;5103309;28;20425;-77
2023/12/29 06:32:31;;;;;;;22.25;4.10;;;9.50;56.80;;;;;;5106517;28;20803;-77
2023/12/29 06:34:57;;;;;;;26.45;4.60;;;9.50;60.20;;;;;;5103055;28;20495;-76
2023/12/29 06:37:22;;;;;;;17.97;3.50;;;9.50;64.00;;;;;;5106156;28;20411;-78
2023/12/29 06:39:48;;;;;;;21.75;4.10;;;9.40;64.30;;;;;;5104366;28;20435;-77
2023/12/29 06:42:13;;;;;;;23.27;4.30;;;9.40;66.60;;;;;;5092963;28;20486;-77
2023/12/29 06:44:39;;;;;;;21.60;4.67;;;9.30;69.20;;;;;;5086231;28;20424;-77
2023/12/29 06:47:06;;;;;;;26.23;4.50;;;9.30;76.00;;;;;;5104314;28;20436;-77
2023/12/29 06:49:33;;;;;;;24.92;4.13;;;9.10;81.00;;;;;;5100995;28;20415;-77
2023/12/29 06:51:59;;;;;;;26.13;4.45;;;9.00;79.30;;;;;;5102365;28;20416;-77
2023/12/29 06:54:25;;;;;;;21.83;3.70;;;8.90;83.20;;;;;;5101000;28;20393;-77
2023/12/29 06:56:50;;;;;;;21.17;3.40;;;8.80;86.30;;;;;;5108242;28;20937;-77
2023/12/29 06:59:18;;;;;;;19.43;2.87;;;8.70;86.40;;;;;;5094196;28;20439;-77
2023/12/29 07:01:44;;;;;;;20.70;3.88;;;8.60;84.00;;;;;;5110422;28;20399;-77
2023/12/29 07:04:10;;;;;;;22.63;4.10;;;8.50;86.60;;;;;;5107286;28;20418;-77
2023/12/29 07:06:39;;;;;;;18.97;3.57;;;8.50;87.80;;;;;;5109074;28;20416;-77
2023/12/29 07:09:05;;;;;;;23.75;4.55;;;8.50;90.00;;;;;;5096132;28;20400;-77
2023/12/29 07:11:31;;;;;;;23.58;4.40;;;8.60;90.70;;;;;;5090962;28;20400;-77
2023/12/29 07:13:56;;;;;;;24.30;3.90;;;8.60;91.80;;;;;;5105980;28;20762;-76
2023/12/29 07:16:22;;;;;;;23.25;3.80;;;8.60;92.60;;;;;;5108105;28;20400;-77
2023/12/29 07:18:51;;;;;;;22.83;3.63;;;8.60;91.40;;;;;;5101703;28;20404;-77
2023/12/29 07:21:18;;;;;;;24.60;4.45;;;8.50;92.20;;;;;;5107690;28;21003;-76
2023/12/29 07:23:43;;;;;;;23.38;3.95;;;8.60;93.00;;;;;;5106345;28;20455;-76
2023/12/29 07:26:09;;;;;;;26.88;4.07;;;8.60;93.20;;;;;;5107907;27;20834;-76
2023/12/29 07:28:34;;;;;;;25.70;3.90;;;8.60;93.00;;;;;;5106530;28;20495;-76
2023/12/29 07:31:01;;;;;;;24.63;3.70;;;8.60;93.20;;;;;;5106771;28;20396;-76
2023/12/29 07:33:27;;;;;;;24.23;4.18;;;8.60;93.00;;;;;;5105624;28;20479;-76
2023/12/29 07:35:53;;;;;;;28.23;4.57;;;8.60;93.20;;;;;;5106733;28;20898;-76
2023/12/29 07:38:18;;;;;;;26.13;4.60;;;8.60;92.70;;;;;;5106628;28;20404;-76
2023/12/29 07:40:44;;;;;;;27.98;4.55;;;8.60;92.60;;;;;;5087528;28;20419;-76
2023/12/29 07:43:10;;;;;;;21.83;4.10;;;8.60;92.90;;;;;;5087488;28;20786;-76
2023/12/29 07:45:35;;;;;;;25.65;4.47;;;8.70;92.70;;;;;;5106102;28;20541;-76
2023/12/29 07:48:04;;;;;;;24.93;4.87;;;8.70;92.60;;;;;;5100928;28;20831;-76
2023/12/29 07:50:30;;;;;;;23.30;4.77;;;8.80;92.40;;;;;;5090218;28;20394;-76
2023/12/29 07:52:55;;;;;;;19.67;3.80;;;8.80;92.30;;;;;;5103882;28;20403;-76
2023/12/29 07:55:21;;;;;;;18.05;3.80;;;8.90;91.70;;;;;;5093552;28;20950;-76
2023/12/29 07:57:48;;;;;;;21.20;3.63;;;8.90;90.20;;;;;;5099758;28;20398;-76
2023/12/29 08:00:17;;;;;;;23.98;4.60;;;8.90;89.60;;;;;;5101021;28;20428;-77
2023/12/29 08:02:42;;;;;;;21.00;4.32;;;8.90;89.10;;;;;;5096077;28;20435;-76
2023/12/29 08:05:08;;;;;;;22.67;4.03;;;8.90;89.70;;;;;;5107488;28;20392;-76
2023/12/29 08:07:36;;;;;;;28.15;4.68;;;8.90;89.10;;;;;;5107067;28;20446;-77
2023/12/29 08:10:04;;;;;;;25.23;5.03;;;8.80;90.00;;;;;;5107249;28;20766;-76
2023/12/29 08:12:29;;;;;;;28.75;4.78;;;8.80;90.00;;;;;;5108016;28;20400;-77
2023/12/29 08:14:56;;;;;;;22.83;4.13;;;8.80;90.90;;;;;;5105804;28;21068;-76
2023/12/29 08:17:22;;;;;;;21.23;3.97;;;8.80;91.00;;;;;;5106841;28;20404;-76
2023/12/29 08:19:47;;;;;;;22.83;4.97;;;8.70;91.10;;;;;;5105723;28;20404;-76
2023/12/29 08:22:13;;;;;;;20.63;4.43;;;8.70;91.10;;;;;;5106970;28;20432;-76
2023/12/29 08:24:43;;;;;;;22.25;3.78;;;8.80;90.60;;;;;;5105839;28;20770;-76
2023/12/29 08:27:09;;;;;;;21.55;4.03;;;8.80;89.10;;;;;;5108383;28;20408;-76
2023/12/29 08:29:34;;;;;;;24.95;4.53;;;8.80;88.20;;;;;;5105010;28;20397;-76
2023/12/29 08:32:01;;;;;;;22.53;3.93;;;8.90;86.20;;;;;;5104808;28;20392;-76
2023/12/29 08:34:27;;;;;;;20.98;3.80;;;8.90;85.90;;;;;;5104543;28;20412;-76
2023/12/29 08:36:53;;;;;;;24.98;4.40;;;8.90;85.10;;;;;;5106313;28;20461;-77
2023/12/29 08:39:18;;;;;;;27.70;4.67;;;8.90;85.30;;;;;;5104094;28;20751;-76
2023/12/29 08:41:44;;;;;;;20.75;3.90;;;8.90;84.30;;;;;;5106074;28;20494;-76
2023/12/29 08:44:10;;;;;;;22.13;3.30;;;8.90;80.70;;;;;;5103797;28;20393;-76
2023/12/29 08:46:36;;;;;;;20.73;4.07;;;9.00;74.30;;;;;;5095136;28;20392;-76
2023/12/29 08:49:01;;;;;;;19.83;3.20;;;9.00;73.40;;;;;;5102671;28;20453;-76
2023/12/29 08:51:27;;;;;;;18.67;3.60;;;9.10;72.10;;;;;;5098805;28;20827;-76
2023/12/29 08:53:52;;;;;;;17.13;3.67;;;9.10;70.90;;;;;;5098514;28;20411;-77
2023/12/29 08:56:18;;;;;;;23.83;4.40;;;9.10;69.50;;;;;;5093262;28;20404;-76
2023/12/29 08:58:44;;;;;;;19.45;2.97;;;9.10;64.30;;;;;;5093401;28;20412;-76
2023/12/29 09:01:09;;;;;;;19.60;3.23;;;9.10;64.10;;;;;;5100024;28;20768;-76
2023/12/29 09:03:35;;;;;;;17.33;3.35;;;9.20;59.80;;;;;;5101016;28;20424;-76
2023/12/29 09:06:01;;;;;;;19.77;3.70;;;9.20;57.90;;;;;;5084467;28;20397;-76
2023/12/29 09:08:27;;;;;;;20.50;3.78;;;9.30;59.60;;;;;;5094756;28;20413;-76
2023/12/29 09:10:52;;;;;;;21.70;3.40;;;9.20;60.10;;;;;;5099207;28;20406;-77
2023/12/29 09:13:22;;;;;;;19.60;3.60;;;9.20;60.30;;;;;;5098733;28;20401;-76
2023/12/29 09:15:48;;;;;;;19.33;2.85;;;9.20;62.00;;;;;;5105247;28;20487;-76
2023/12/29 09:18:13;;;;;;;20.05;3.42;;;9.20;59.90;;;;;;5102663;28;20434;-76
2023/12/29 09:20:39;;;;;;;22.70;4.28;;;9.30;59.80;;;;;;5105114;28;20408;-77
2023/12/29 09:23:05;;;;;;;19.90;3.88;;;9.30;59.70;;;;;;5104727;27;20428;-77
2023/12/29 09:25:31;;;;;;;22.40;4.27;;;9.30;62.30;;;;;;5098438;28;20398;-77
2023/12/29 09:27:56;;;;;;;23.52;4.10;;;9.30;63.50;;;;;;5097223;28;20464;-77
2023/12/29 09:30:22;;;;;;;20.53;4.20;;;9.30;65.00;;;;;;5085756;28;20914;-77
2023/12/29 09:32:47;;;;;;;21.23;3.65;;;9.30;65.70;;;;;;5101975;28;20408;-77
2023/12/29 09:35:13;;;;;;;22.53;4.10;;;9.30;65.60;;;;;;5097607;28;20422;-77
2023/12/29 09:37:38;;;;;;;18.70;3.33;;;9.40;66.20;;;;;;5096301;28;20438;-77
2023/12/29 09:40:05;;;;;;;22.33;3.87;;;9.40;65.50;;;;;;5101804;28;20545;-77
2023/12/29 09:42:31;;;;;;;21.35;4.65;;;9.40;65.10;;;;;;5100730;28;20432;-77
2023/12/29 09:44:58;;;;;;;24.80;4.85;;;9.40;65.70;;;;;;5102597;28;20404;-77
2023/12/29 09:47:25;;;;;;;21.02;4.07;;;9.50;67.10;;;;;;5100035;28;21039;-77
2023/12/29 09:49:54;;;;;;;27.08;4.50;;;9.50;67.70;;;;;;5083995;28;20914;-77
2023/12/29 09:52:21;;;;;;;27.70;4.53;;;9.50;68.40;;;;;;5099507;28;20489;-77
2023/12/29 09:54:50;;;;;;;24.13;4.63;;;9.50;68.80;;;;;;5102169;28;21047;-77
2023/12/29 09:57:18;;;;;;;23.13;4.20;;;9.50;69.00;;;;;;5100145;28;20427;-78
2023/12/29 09:59:44;;;;;;;20.05;3.42;;;9.60;67.40;;;;;;5096814;28;20408;-77
2023/12/29 10:02:18;;;;;;;21.38;3.95;;;9.60;68.00;;;;;;5106811;28;20417;-77
2023/12/29 10:04:44;;;;;;;22.33;3.80;;;9.60;65.80;;;;;;5106987;28;20877;-77
2023/12/29 10:07:18;;;;;;;24.63;3.92;;;9.60;63.50;;;;;;5105112;28;20404;-77
2023/12/29 10:09:46;;;;;;;22.23;3.83;;;9.70;61.30;;;;;;5107480;28;20404;-77
2023/12/29 10:12:13;;;;;;;20.73;4.28;;;9.70;63.40;;;;;;5101088;28;20408;-77
2023/12/29 10:14:48;;;;;;;20.58;4.00;;;9.70;61.40;;;;;;5099338;28;20396;-77
2023/12/29 10:17:41;;;;;;;22.17;3.65;;;9.70;58.30;;;;;;5090647;28;20409;-77
2023/12/29 10:20:15;;;;;;;16.95;3.13;;;9.70;54.90;;;;;;5105684;28;20462;-77
2023/12/29 10:22:51;;;;;;;18.75;3.40;;;9.70;54.20;;;;;;5105536;28;20424;-77
2023/12/29 10:25:17;;;;;;;20.20;3.50;;;9.70;50.40;;;;;;5104561;28;20400;-77
2023/12/29 10:27:43;;;;;;;22.90;3.57;;;9.80;53.10;;;;;;5106169;28;20774;-77
2023/12/29 10:30:11;;;;;;;21.58;3.42;;;9.80;54.40;;;;;;5105981;28;20400;-77
2023/12/29 10:32:37;;;;;;;20.20;3.40;;;9.80;55.10;;;;;;5111348;28;20404;-77
2023/12/29 10:35:12;;;;;;;27.50;8.07;;;9.80;56.10;;;;;;5097712;28;20754;-77
2023/12/29 10:37:38;;;;;;;21.17;3.75;;;9.80;58.10;;;;;;5109757;28;20418;-77
2023/12/29 10:40:05;;;;;;;18.40;3.92;;;9.80;58.30;;;;;;5100648;28;20392;-77
2023/12/29 10:42:31;;;;;;;20.75;3.17;;;9.80;58.30;;;;;;5110485;27;20774;-77
2023/12/29 10:45:07;;;;;;;19.90;3.40;;;9.90;57.40;;;;;;5112043;28;20438;-77
2023/12/29 10:47:35;;;;;;;17.98;3.38;;;9.90;56.30;;;;;;5108730;27;20933;-77
2023/12/29 10:50:05;;;;;;;16.23;3.43;;;9.90;51.00;;;;;;5111843;27;20823;-77
2023/12/29 10:52:32;;;;;;;15.88;2.78;;;9.90;39.70;;;;;;5107914;28;20439;-77
2023/12/29 10:55:06;;;;;;;18.23;3.20;;;10.00;40.20;;;;;;5110630;27;20415;-77
2023/12/29 10:57:32;;;;;;;18.60;3.63;;;10.00;29.20;;;;;;5104662;28;20912;-77
2023/12/29 11:00:00;;;;;;;17.02;2.60;;;10.10;28.90;;;;;;5102842;28;20445;-77
2023/12/29 11:02:26;;;;;;;14.93;2.88;;;10.20;23.40;;;;;;5109464;28;20428;-77
2023/12/29 11:05:00;;;;;;;15.45;2.60;;;10.30;23.60;;;;;;5113218;27;20400;-77
2023/12/29 11:07:36;;;;;;;16.38;3.20;;;10.30;15.20;;;;;;5109350;28;20400;-77
2023/12/29 11:10:07;;;;;;;15.37;2.47;;;10.40;17.30;;;;;;5109159;28;20520;-78
2023/12/29 11:12:34;;;;;;;14.97;2.80;;;10.40;12.70;;;;;;5100986;28;20434;-77
2023/12/29 11:15:05;;;;;;;14.93;2.97;;;10.60;8.50;;;;;;5108735;28;20404;-77
2023/12/29 11:17:33;;;;;;;12.70;2.80;;;10.70;4.30;;;;;;5111957;27;20427;-77
2023/12/29 11:20:00;;;;;;;17.48;3.40;;;10.80;1.00;;;;;;5091240;28;20452;-77
2023/12/29 11:22:31;;;;;;;16.57;3.30;;;10.80;1.00;;;;;;5111453;27;20422;-77
2023/12/29 11:24:59;;;;;;;13.18;2.08;;;10.60;1.00;;;;;;5105828;28;20430;-77
2023/12/29 11:27:29;;;;;;;17.95;2.97;;;10.40;3.60;;;;;;5109523;28;20411;-77
2023/12/29 11:29:59;;;;;;;14.20;2.20;;;10.20;4.10;;;;;;5106800;28;20413;-77
2023/12/29 11:32:43;;;;;;;15.33;2.50;;;10.00;8.70;;;;;;5110000;28;20958;-77
2023/12/29 11:35:28;;;;;;;16.20;2.63;;;9.90;8.90;;;;;;5108312;28;20454;-77
2023/12/29 11:38:21;;;;;;;11.50;2.42;;;9.80;7.50;;;;;;5090475;28;20398;-77
2023/12/29 11:41:00;;;;;;;14.73;2.67;;;9.90;7.90;;;;;;5108866;28;20977;-77
2023/12/29 11:43:26;;;;;;;13.23;2.17;;;9.90;1.00;;;;;;5078686;28;20436;-77
2023/12/29 11:45:52;;;;;;;16.05;2.42;;;10.00;1.00;;;;;;5101363;28;20892;-77
2023/12/29 11:49:03;;;;;;;12.75;2.58;;;9.90;1.00;;;;;;5106159;28;20513;-78
2023/12/29 11:51:33;;;;;;;15.57;2.80;;;10.00;1.00;;;;;;5071929;28;20414;-78
2023/12/29 11:54:02;;;;;;;14.43;2.42;;;10.00;1.00;;;;;;5100603;28;20768;-77
2023/12/29 11:56:46;;;;;;;15.40;2.57;;;10.00;1.00;;;;;;5096473;28;20404;-78
2023/12/29 11:59:23;;;;;;;13.38;2.30;;;10.00;1.00;;;;;;5093895;28;20486;-77
2023/12/29 12:01:48;;;;;;;13.52;2.50;;;10.00;1.00;;;;;;5107526;28;20408;-77
2023/12/29 12:04:37;;;;;;;14.45;2.60;;;10.00;1.00;;;;;;5106428;28;20415;-77
2023/12/29 12:07:17;;;;;;;16.67;3.05;;;10.00;1.00;;;;;;5106135;28;20456;-77
2023/12/29 12:09:43;;;;;;;14.63;2.92;;;10.10;1.00;;;;;;5107312;28;20407;-77
2023/12/29 12:12:10;;;;;;;16.07;2.80;;;10.20;1.00;;;;;;5107484;28;20396;-78
2023/12/29 12:14:49;;;;;;;16.50;2.63;;;10.20;2.10;;;;;;5108929;28;20428;-77
2023/12/29 12:17:34;;;;;;;16.40;2.78;;;10.40;1.00;;;;;;5107800;28;20404;-77
2023/12/29 12:20:08;;;;;;;13.27;2.30;;;10.70;1.00;;;;;;5106627;28;20412;-78
2023/12/29 12:22:37;;;;;;;11.98;2.45;;;10.80;1.00;;;;;;5110568;28;20515;-77
2023/12/29 12:25:03;;;;;;;13.65;2.70;;;10.80;1.00;;;;;;5105673;28;20806;-78
2023/12/29 12:27:31;;;;;;;12.95;2.42;;;10.90;1.00;;;;;;5108745;28;20396;-77
2023/12/29 12:30:01;;;;;;;13.18;2.63;;;11.00;1.00;;;;;;5106064;28;20461;-78
2023/12/29 12:32:27;;;;;;;13.55;2.45;;;11.20;1.00;;;;;;5107742;28;20396;-78
2023/12/29 12:34:54;;;;;;;18.98;3.22;;;11.20;1.00;;;;;;5104902;28;20449;-77
2023/12/29 12:37:25;;;;;;;15.57;2.70;;;11.20;1.00;;;;;;5107861;28;20392;-78
2023/12/29 12:39:51;;;;;;;15.30;2.65;;;11.10;1.00;;;;;;5104582;28;20406;-78
2023/12/29 12:42:18;;;;;;;11.88;2.17;;;11.00;1.00;;;;;;5107556;28;20412;-77
2023/12/29 12:45:11;;;;;;;14.27;2.40;;;10.90;1.00;;;;;;5092492;28;20751;-77
2023/12/29 12:47:44;;;;;;;10.40;2.13;;;10.70;1.00;;;;;;5103020;28;20410;-77
2023/12/29 12:50:13;;;;;;;12.02;2.30;;;10.50;1.00;;;;;;5107249;28;20480;-78